createdAt,value
2023-02-22T00:00:49.851Z,3.40
2023-02-22T00:03:24.899Z,3.40
2023-02-22T00:06:04.106Z,3.08
2023-02-22T00:08:34.199Z,3.47
2023-02-22T00:11:09.790Z,3.42
2023-02-22T00:13:38.369Z,3.30
2023-02-22T00:16:08.904Z,3.53
2023-02-22T00:18:37.807Z,3.65
2023-02-22T00:21:10.412Z,3.30
2023-02-22T00:23:43.230Z,3.40
2023-02-22T00:28:38.187Z,3.70
2023-02-22T00:31:07.642Z,3.25
2023-02-22T00:33:37.512Z,3.60
2023-02-22T00:36:04.874Z,3.13
2023-02-22T00:38:32.178Z,3.50
2023-02-22T00:40:59.335Z,3.38
2023-02-22T00:43:28.229Z,3.85
2023-02-22T00:45:57.133Z,3.30
2023-02-22T00:48:25.787Z,3.40
2023-02-22T00:50:55.197Z,3.42
2023-02-22T00:53:25.906Z,3.53
2023-02-22T00:55:56.627Z,3.22
2023-02-22T00:58:24.364Z,3.10
2023-02-22T01:00:51.940Z,3.50
2023-02-22T01:03:20.298Z,3.60
2023-02-22T01:05:48.323Z,3.45
2023-02-22T01:08:17.489Z,4.13
2023-02-22T01:10:46.686Z,3.28
2023-02-22T01:13:14.210Z,3.60
2023-02-22T01:15:44.887Z,3.30
2023-02-22T01:18:17.201Z,3.50
2023-02-22T01:20:48.126Z,3.65
2023-02-22T01:23:18.357Z,3.47
2023-02-22T01:25:45.635Z,3.60
2023-02-22T01:28:17.598Z,3.85
2023-02-22T01:30:47.287Z,3.35
2023-02-22T01:33:15.535Z,3.35
2023-02-22T01:35:46.364Z,3.53
2023-02-22T01:38:16.191Z,3.33
2023-02-22T01:40:52.172Z,3.70
2023-02-22T01:43:31.087Z,3.60
2023-02-22T01:46:17.102Z,3.60
2023-02-22T01:49:06.555Z,3.95
2023-02-22T01:51:44.033Z,3.40
2023-02-22T01:54:18.584Z,3.75
2023-02-22T01:56:57.069Z,3.63
2023-02-22T01:59:24.434Z,3.78
2023-02-22T02:01:56.015Z,3.70
2023-02-22T02:04:25.918Z,3.92
2023-02-22T02:07:02.770Z,3.53
2023-02-22T02:09:59.551Z,3.97
2023-02-22T02:12:31.130Z,4.35
2023-02-22T02:15:18.905Z,3.92
2023-02-22T02:17:48.467Z,3.58
2023-02-22T02:20:51.083Z,3.70
2023-02-22T02:24:12.718Z,3.42
2023-02-22T02:27:19.309Z,3.60
2023-02-22T02:30:13.900Z,3.65
2023-02-22T02:33:01.629Z,3.72
2023-02-22T02:35:36.753Z,3.70
2023-02-22T02:38:26.570Z,3.45
2023-02-22T02:41:03.626Z,3.45
2023-02-22T02:43:38.930Z,3.35
2023-02-22T02:46:09.866Z,3.88
2023-02-22T02:48:44.433Z,3.47
2023-02-22T02:51:14.885Z,3.58
2023-02-22T02:53:48.565Z,3.88
2023-02-22T02:56:17.864Z,3.60
2023-02-22T02:58:49.146Z,3.55
2023-02-22T03:01:44.866Z,3.95
2023-02-22T03:04:37.911Z,3.97
2023-02-22T03:07:31.738Z,3.80
2023-02-22T03:10:29.319Z,3.67
2023-02-22T03:13:17.666Z,4.10
2023-02-22T03:15:55.640Z,3.53
2023-02-22T03:18:53.154Z,3.85
2023-02-22T03:21:57.086Z,4.00
2023-02-22T03:27:33.743Z,3.45
2023-02-22T03:30:12.256Z,4.15
2023-02-22T03:32:47.464Z,3.72
2023-02-22T03:35:26.927Z,4.28
2023-02-22T03:37:57.143Z,4.28
2023-02-22T03:40:34.811Z,3.53
2023-02-22T03:43:09.155Z,3.72
2023-02-22T03:45:44.200Z,3.72
2023-02-22T03:48:46.939Z,4.07
2023-02-22T03:51:17.003Z,3.78
2023-02-22T03:53:50.270Z,3.60
2023-02-22T03:56:25.637Z,3.85
2023-02-22T03:58:53.992Z,4.50
2023-02-22T04:01:25.024Z,4.07
2023-02-22T04:03:54.995Z,3.70
2023-02-22T04:06:22.319Z,3.30
2023-02-22T04:08:49.761Z,3.72
2023-02-22T04:11:18.351Z,4.25
2023-02-22T04:13:48.117Z,4.30
2023-02-22T04:16:19.111Z,4.28
2023-02-22T04:18:49.730Z,4.30
2023-02-22T04:21:21.589Z,4.60
2023-02-22T04:24:08.369Z,5.00
2023-02-22T04:26:44.819Z,4.47
2023-02-22T04:29:12.108Z,4.82
2023-02-22T04:31:41.414Z,4.30
2023-02-22T04:34:10.310Z,3.85
2023-02-22T04:36:42.368Z,4.28
2023-02-22T04:39:10.988Z,4.20
2023-02-22T04:41:38.298Z,4.13
2023-02-22T04:44:07.287Z,3.97
2023-02-22T04:46:34.989Z,4.60
2023-02-22T04:49:05.254Z,4.53
2023-02-22T04:51:39.283Z,4.03
2023-02-22T04:54:08.636Z,3.97
2023-02-22T04:56:38.349Z,3.90
2023-02-22T04:59:06.346Z,3.40
2023-02-22T05:01:34.982Z,4.03
2023-02-22T05:04:07.626Z,3.80
2023-02-22T05:06:34.935Z,3.80
2023-02-22T05:09:03.044Z,3.45
2023-02-22T05:11:32.957Z,3.80
2023-02-22T05:14:04.967Z,3.58
2023-02-22T05:16:34.510Z,3.90
2023-02-22T05:19:04.618Z,3.35
2023-02-22T05:21:31.883Z,3.60
2023-02-22T05:24:00.752Z,3.33
2023-02-22T05:26:28.328Z,4.00
2023-02-22T05:28:55.484Z,3.58
2023-02-22T05:31:23.018Z,3.95
2023-02-22T05:33:52.725Z,3.40
2023-02-22T05:36:20.004Z,3.30
2023-02-22T05:38:47.151Z,3.30
2023-02-22T05:41:15.186Z,3.65
2023-02-22T05:43:42.750Z,3.33
2023-02-22T05:46:10.105Z,3.40
2023-02-22T05:48:39.813Z,3.10
2023-02-22T05:51:07.514Z,3.53
2023-02-22T05:53:38.011Z,3.45
2023-02-22T05:56:05.755Z,3.03
2023-02-22T05:58:32.978Z,3.47
2023-02-22T06:01:02.720Z,2.90
2023-02-22T06:03:30.385Z,3.40
2023-02-22T06:05:58.476Z,3.17
2023-02-22T06:08:27.758Z,3.45
2023-02-22T06:10:55.314Z,3.50
2023-02-22T06:13:24.982Z,3.28
2023-02-22T06:15:52.478Z,3.10
2023-02-22T06:18:22.910Z,2.95
2023-02-22T06:20:50.849Z,3.25
2023-02-22T06:23:18.177Z,3.10
2023-02-22T06:25:45.641Z,3.33
2023-02-22T06:28:15.732Z,3.03
2023-02-22T06:30:43.262Z,2.70
2023-02-22T06:33:11.738Z,2.90
2023-02-22T06:35:41.427Z,3.20
2023-02-22T06:38:08.770Z,2.63
2023-02-22T06:40:37.087Z,2.80
2023-02-22T06:43:04.257Z,3.08
2023-02-22T06:45:31.719Z,2.90
2023-02-22T06:47:59.535Z,3.72
2023-02-22T06:50:29.210Z,3.15
2023-02-22T06:52:59.883Z,3.15
2023-02-22T06:55:29.919Z,3.13
2023-02-22T06:58:02.799Z,3.00
2023-02-22T07:00:32.955Z,3.08
2023-02-22T07:03:01.393Z,3.53
2023-02-22T07:05:28.958Z,3.00
2023-02-22T07:08:04.111Z,3.55
2023-02-22T07:10:33.471Z,3.30
2023-02-22T07:13:01.279Z,3.38
2023-02-22T07:15:30.916Z,3.28
2023-02-22T07:17:58.860Z,3.13
2023-02-22T07:20:31.043Z,4.03
2023-02-22T07:23:01.857Z,3.42
2023-02-22T07:25:31.868Z,3.78
2023-02-22T07:28:01.897Z,3.38
2023-02-22T07:30:32.623Z,3.72
2023-02-22T07:33:07.336Z,3.50
2023-02-22T07:35:37.321Z,3.77
2023-02-22T07:38:08.051Z,3.00
2023-02-22T07:40:36.962Z,3.58
2023-02-22T07:43:16.962Z,3.65
2023-02-22T07:45:47.145Z,3.65
2023-02-22T07:48:21.375Z,3.42
2023-02-22T07:50:51.301Z,3.00
2023-02-22T07:53:24.699Z,3.17
2023-02-22T07:55:52.781Z,3.53
2023-02-22T07:58:23.000Z,2.95
2023-02-22T08:00:50.525Z,2.97
2023-02-22T08:03:20.218Z,3.30
2023-02-22T08:05:52.948Z,3.20
2023-02-22T08:08:20.860Z,3.03
2023-02-22T08:10:52.083Z,3.20
2023-02-22T08:13:22.121Z,3.25
2023-02-22T08:15:55.344Z,3.70
2023-02-22T08:18:24.180Z,3.65
2023-02-22T08:20:52.740Z,2.92
2023-02-22T08:23:25.257Z,3.65
2023-02-22T08:25:55.932Z,3.75
2023-02-22T08:28:25.734Z,5.25
2023-02-22T08:30:55.510Z,4.40
2023-02-22T08:33:25.223Z,5.85
2023-02-22T08:35:52.948Z,5.40
2023-02-22T08:38:31.336Z,5.70
2023-02-22T08:40:58.750Z,5.15
2023-02-22T08:43:26.457Z,5.13
2023-02-22T08:45:57.737Z,6.18
2023-02-22T08:48:27.912Z,6.18
2023-02-22T08:50:55.040Z,4.88
2023-02-22T08:53:22.397Z,5.75
2023-02-22T08:55:51.868Z,5.50
2023-02-22T08:58:19.409Z,5.53
2023-02-22T09:00:49.427Z,6.00
2023-02-22T09:03:18.981Z,5.30
2023-02-22T09:05:48.411Z,5.65
2023-02-22T09:08:18.085Z,5.22
2023-02-22T09:10:45.476Z,5.05
2023-02-22T09:13:15.678Z,5.68
2023-02-22T09:15:43.182Z,5.20
2023-02-22T09:18:14.460Z,4.68
2023-02-22T09:20:41.953Z,4.80
2023-02-22T09:23:09.915Z,5.35
2023-02-22T09:25:40.930Z,5.32
2023-02-22T09:28:13.096Z,5.95
2023-02-22T09:30:40.909Z,5.13
2023-02-22T09:33:10.013Z,5.30
2023-02-22T09:35:42.215Z,4.93
2023-02-22T09:38:19.222Z,4.43
2023-02-22T09:40:53.034Z,5.07
2023-02-22T09:43:20.156Z,4.43
2023-02-22T09:46:05.977Z,4.57
2023-02-22T09:48:36.375Z,5.22
2023-02-22T09:51:11.678Z,4.50
2023-02-22T09:53:45.290Z,4.68
2023-02-22T09:56:18.754Z,4.03
2023-02-22T09:58:54.801Z,4.88
2023-02-22T10:01:39.540Z,3.90
2023-02-22T10:04:30.360Z,4.45
2023-02-22T10:07:20.577Z,4.55
2023-02-22T10:09:49.921Z,4.43
2023-02-22T10:12:27.944Z,3.88
2023-02-22T10:15:41.629Z,4.22
2023-02-22T10:18:42.717Z,4.50
2023-02-22T10:21:31.822Z,4.75
2023-02-22T10:24:05.043Z,3.85
2023-02-22T10:26:40.175Z,3.83
2023-02-22T10:29:39.962Z,4.22
2023-02-22T10:32:17.206Z,4.25
2023-02-22T10:34:49.193Z,3.25
2023-02-22T10:37:36.351Z,3.88
2023-02-22T10:40:21.908Z,4.20
2023-02-22T10:42:50.077Z,4.55
2023-02-22T10:45:37.713Z,4.65
2023-02-22T10:48:12.944Z,5.50
2023-02-22T10:50:42.815Z,4.45
2023-02-22T10:53:15.336Z,4.40
2023-02-22T10:56:08.064Z,5.65
2023-02-22T10:58:46.417Z,4.53
2023-02-22T11:01:33.495Z,4.90
2023-02-22T11:04:17.540Z,4.75
2023-02-22T11:07:01.362Z,4.25
2023-02-22T11:09:29.066Z,5.28
2023-02-22T11:12:17.706Z,4.80
2023-02-22T11:14:47.411Z,4.22
2023-02-22T11:17:22.456Z,3.92
2023-02-22T11:19:53.482Z,3.60
2023-02-22T11:22:32.971Z,5.40
2023-02-22T11:25:04.378Z,4.20
2023-02-22T11:27:32.758Z,4.45
2023-02-22T11:30:08.801Z,6.68
2023-02-22T11:32:43.251Z,5.53
2023-02-22T11:35:33.259Z,4.57
2023-02-22T11:38:16.121Z,4.43
2023-02-22T11:40:46.478Z,5.18
2023-02-22T11:43:17.294Z,4.60
2023-02-22T11:46:21.871Z,4.28
2023-02-22T11:49:01.892Z,4.45
2023-02-22T11:51:49.721Z,4.75
2023-02-22T11:54:35.826Z,4.50
2023-02-22T11:57:05.244Z,4.55
2023-02-22T11:59:39.975Z,4.93
2023-02-22T12:02:30.499Z,4.68
2023-02-22T12:05:19.337Z,5.10
2023-02-22T12:08:19.858Z,6.07
2023-02-22T12:10:49.620Z,4.70
2023-02-22T12:13:27.270Z,5.63
2023-02-22T12:16:28.821Z,4.93
2023-02-22T12:19:33.016Z,4.57
2023-02-22T12:22:23.738Z,4.78
2023-02-22T12:25:26.594Z,4.40
2023-02-22T12:27:58.971Z,4.82
2023-02-22T12:30:39.430Z,4.00
2023-02-22T12:33:14.634Z,5.05
2023-02-22T12:35:52.984Z,4.95
2023-02-22T12:38:31.440Z,5.82
2023-02-22T12:41:13.944Z,5.47
2023-02-22T12:43:53.662Z,5.68
2023-02-22T12:46:33.006Z,5.78
2023-02-22T12:49:26.695Z,5.65
2023-02-22T12:52:21.785Z,5.05
2023-02-22T12:55:04.627Z,5.60
2023-02-22T12:58:08.866Z,11.40
2023-02-22T13:00:44.684Z,12.57
2023-02-22T13:03:40.717Z,10.90
2023-02-22T13:06:13.724Z,10.90
2023-02-22T13:08:52.854Z,9.15
2023-02-22T13:11:32.005Z,7.75
2023-02-22T13:14:30.102Z,7.70
2023-02-22T13:17:08.354Z,10.00
2023-02-22T13:19:55.912Z,8.55
2023-02-22T13:22:27.773Z,8.02
2023-02-22T13:25:09.801Z,10.45
2023-02-22T13:27:46.827Z,9.65
2023-02-22T13:30:25.261Z,7.88
2023-02-22T13:33:19.793Z,8.20
2023-02-22T13:35:58.812Z,7.72
2023-02-22T13:38:53.950Z,6.72
2023-02-22T13:41:39.693Z,6.13
2023-02-22T13:44:24.530Z,6.32
2023-02-22T13:47:17.020Z,5.65
2023-02-22T13:49:59.867Z,5.95
2023-02-22T13:52:30.884Z,6.30
2023-02-22T13:55:05.197Z,5.43
2023-02-22T13:57:48.187Z,6.03
2023-02-22T14:00:15.531Z,6.13
2023-02-22T14:03:06.661Z,5.22
2023-02-22T14:05:41.265Z,5.82
2023-02-22T14:08:31.315Z,6.03
2023-02-22T14:11:05.927Z,5.78
2023-02-22T14:14:00.768Z,5.72
2023-02-22T14:16:32.118Z,5.25
2023-02-22T14:19:15.604Z,6.32
2023-02-22T14:22:02.110Z,6.07
2023-02-22T14:24:57.224Z,5.80
2023-02-22T14:27:24.913Z,6.43
2023-02-22T14:29:57.472Z,5.70
2023-02-22T14:32:33.880Z,6.73
2023-02-22T14:35:26.586Z,6.38
2023-02-22T14:38:00.428Z,6.57
2023-02-22T14:40:30.753Z,6.60
2023-02-22T14:43:13.338Z,6.65
2023-02-22T14:45:54.459Z,5.70
2023-02-22T14:48:39.301Z,5.60
2023-02-22T14:51:42.416Z,7.25
2023-02-22T14:54:29.602Z,6.55
2023-02-22T14:57:15.006Z,5.95
2023-02-22T15:00:08.285Z,6.57
2023-02-22T15:02:41.659Z,6.57
2023-02-22T15:05:15.112Z,6.20
2023-02-22T15:07:58.084Z,7.50
2023-02-22T15:10:27.262Z,6.47
2023-02-22T15:13:10.544Z,6.55
2023-02-22T15:15:47.597Z,8.60
2023-02-22T15:18:24.585Z,7.25
2023-02-22T15:20:57.504Z,7.80
2023-02-22T15:23:54.071Z,6.70
2023-02-22T15:26:49.157Z,8.25
2023-02-22T15:29:35.666Z,7.47
2023-02-22T15:32:17.812Z,7.28
2023-02-22T15:34:45.053Z,8.15
2023-02-22T15:37:25.434Z,7.72
2023-02-22T15:39:59.268Z,7.40
2023-02-22T15:42:30.544Z,7.28
2023-02-22T15:45:02.549Z,6.43
2023-02-22T15:47:32.069Z,7.82
2023-02-22T15:50:30.172Z,7.55
2023-02-22T15:53:00.452Z,6.22
2023-02-22T15:55:31.797Z,7.40
2023-02-22T15:58:10.925Z,6.43
2023-02-22T16:00:44.007Z,6.15
2023-02-22T16:03:14.661Z,6.28
2023-02-22T16:05:47.346Z,5.40
2023-02-22T16:08:19.111Z,4.95
2023-02-22T16:11:14.490Z,6.00
2023-02-22T16:13:51.219Z,5.53
2023-02-22T16:16:21.807Z,6.82
2023-02-22T16:18:54.873Z,5.88
2023-02-22T16:21:22.850Z,7.10
2023-02-22T16:23:57.396Z,6.25
2023-02-22T16:26:30.851Z,7.20
2023-02-22T16:29:05.856Z,6.88
2023-02-22T16:31:40.118Z,6.95
2023-02-22T16:34:08.980Z,6.07
2023-02-22T16:36:42.760Z,6.80
2023-02-22T16:39:27.871Z,6.25
2023-02-22T16:42:05.269Z,6.22
2023-02-22T16:44:34.828Z,5.65
2023-02-22T16:47:02.393Z,6.80
2023-02-22T16:49:29.824Z,6.25
2023-02-22T16:52:06.596Z,6.15
2023-02-22T16:54:45.204Z,4.97
2023-02-22T16:57:19.110Z,5.28
2023-02-22T16:59:50.158Z,5.00
2023-02-22T17:02:18.335Z,5.10
2023-02-22T17:04:52.900Z,4.40
2023-02-22T17:07:31.016Z,5.25
2023-02-22T17:09:58.377Z,5.07
2023-02-22T17:12:30.320Z,4.72
2023-02-22T17:14:59.864Z,5.25
2023-02-22T17:17:32.821Z,4.80
2023-02-22T17:20:01.552Z,4.68
2023-02-22T17:22:28.898Z,4.72
2023-02-22T17:24:58.468Z,4.70
2023-02-22T17:27:30.624Z,4.00
2023-02-22T17:29:57.838Z,4.53
2023-02-22T17:32:25.285Z,4.97
2023-02-22T17:34:52.634Z,4.75
2023-02-22T17:37:22.139Z,4.22
2023-02-22T17:39:49.616Z,4.55
2023-02-22T17:42:16.805Z,5.00
2023-02-22T17:44:44.126Z,4.22
2023-02-22T17:47:11.660Z,4.53
2023-02-22T17:49:38.993Z,5.00
2023-02-22T17:52:06.315Z,4.55
2023-02-22T17:54:34.226Z,4.05
2023-02-22T17:57:03.022Z,4.28
2023-02-22T17:59:32.073Z,4.88
2023-02-22T18:02:03.226Z,5.00
2023-02-22T18:04:34.758Z,4.68
2023-02-22T18:07:01.964Z,3.97
2023-02-22T18:09:29.631Z,4.70
2023-02-22T18:11:56.842Z,4.75
2023-02-22T18:14:26.524Z,4.97
2023-02-22T18:16:55.909Z,4.90
2023-02-22T18:19:23.409Z,5.47
2023-02-22T18:21:50.825Z,4.43
2023-02-22T18:24:18.600Z,4.15
2023-02-22T18:26:47.544Z,4.53
2023-02-22T18:29:14.950Z,4.47
2023-02-22T18:31:45.443Z,4.43
2023-02-22T18:34:13.196Z,4.03
2023-02-22T18:36:43.448Z,4.40
2023-02-22T18:39:11.818Z,4.95
2023-02-22T18:41:41.405Z,4.35
2023-02-22T18:44:11.015Z,4.72
2023-02-22T18:46:43.606Z,4.53
2023-02-22T18:49:15.365Z,4.80
2023-02-22T18:51:45.924Z,4.10
2023-02-22T18:54:13.307Z,4.25
2023-02-22T18:56:40.743Z,4.20
2023-02-22T18:59:12.024Z,4.20
2023-02-22T19:01:41.036Z,4.63
2023-02-22T19:04:09.875Z,4.57
2023-02-22T19:06:39.677Z,4.30
2023-02-22T19:09:09.361Z,4.28
2023-02-22T19:11:37.275Z,4.95
2023-02-22T19:14:05.216Z,4.63
2023-02-22T19:16:33.238Z,4.70
2023-02-22T19:19:00.549Z,4.65
2023-02-22T19:21:29.281Z,5.25
2023-02-22T19:24:01.390Z,4.45
2023-02-22T19:26:29.452Z,4.30
2023-02-22T19:28:58.823Z,4.63
2023-02-22T19:31:33.722Z,4.10
2023-02-22T19:34:08.693Z,4.60
2023-02-22T19:36:46.755Z,4.47
2023-02-22T19:39:19.108Z,5.00
2023-02-22T19:41:47.324Z,4.50
2023-02-22T19:44:17.110Z,4.90
2023-02-22T19:46:45.383Z,4.63
2023-02-22T19:49:18.805Z,4.47
2023-02-22T19:51:46.427Z,4.60
2023-02-22T19:54:19.569Z,4.70
2023-02-22T19:56:51.029Z,4.28
2023-02-22T19:59:22.833Z,4.32
2023-02-22T20:01:55.915Z,4.07
2023-02-22T20:04:24.499Z,4.38
2023-02-22T20:06:55.513Z,3.95
2023-02-22T20:09:29.889Z,4.70
2023-02-22T20:11:57.366Z,4.78
2023-02-22T20:14:30.509Z,4.18
2023-02-22T20:16:58.494Z,4.40
2023-02-22T20:19:26.788Z,3.92
2023-02-22T20:22:00.285Z,4.18
2023-02-22T20:27:01.852Z,4.85
2023-02-22T20:29:33.708Z,4.15
2023-02-22T20:32:02.858Z,4.10
2023-02-22T20:34:33.667Z,4.30
2023-02-22T20:37:02.934Z,3.78
2023-02-22T20:39:32.973Z,4.28
2023-02-22T20:42:00.561Z,4.45
2023-02-22T20:44:28.386Z,4.00
2023-02-22T20:46:55.945Z,4.30
2023-02-22T20:49:23.277Z,4.03
2023-02-22T20:51:55.350Z,4.00
2023-02-22T20:54:25.452Z,3.95
2023-02-22T20:56:53.279Z,4.55
2023-02-22T20:59:21.813Z,3.80
2023-02-22T21:01:53.068Z,4.05
2023-02-22T21:04:23.443Z,4.15
2023-02-22T21:06:51.952Z,4.25
2023-02-22T21:09:21.456Z,4.43
2023-02-22T21:11:51.050Z,4.20
2023-02-22T21:14:19.669Z,4.22
2023-02-22T21:16:51.081Z,4.40
2023-02-22T21:19:25.495Z,4.68
2023-02-22T21:21:59.758Z,4.15
2023-02-22T21:24:29.147Z,4.53
2023-02-22T21:26:58.790Z,4.45
2023-02-22T21:29:28.202Z,4.57
2023-02-22T21:31:58.670Z,4.40
2023-02-22T21:34:26.230Z,4.78
2023-02-22T21:36:57.180Z,3.72
2023-02-22T21:39:28.409Z,4.20
2023-02-22T21:42:00.110Z,4.28
2023-02-22T21:44:30.088Z,4.07
2023-02-22T21:46:57.559Z,3.63
2023-02-22T21:49:25.979Z,4.32
2023-02-22T21:51:53.499Z,4.35
2023-02-22T21:54:20.815Z,4.38
2023-02-22T21:56:48.042Z,4.35
2023-02-22T21:59:23.645Z,4.22
2023-02-22T22:01:55.788Z,4.18
2023-02-22T22:04:28.436Z,3.90
2023-02-22T22:06:58.180Z,4.03
2023-02-22T22:09:32.784Z,3.90
2023-02-22T22:12:04.894Z,4.10
2023-02-22T22:14:34.648Z,4.20
2023-02-22T22:17:09.551Z,4.43
2023-02-22T22:19:44.498Z,4.25
2023-02-22T22:22:12.779Z,4.43
2023-02-22T22:24:45.732Z,4.03
2023-02-22T22:27:13.320Z,4.50
2023-02-22T22:29:40.857Z,4.15
2023-02-22T22:32:09.133Z,4.75
2023-02-22T22:34:37.818Z,4.47
2023-02-22T22:37:08.665Z,4.80
2023-02-22T22:39:38.502Z,4.70
2023-02-22T22:42:05.668Z,4.32
2023-02-22T22:44:41.746Z,4.45
2023-02-22T22:47:12.220Z,4.30
2023-02-22T22:49:42.612Z,4.78
2023-02-22T22:52:14.580Z,4.43
2023-02-22T22:54:44.192Z,4.53
2023-02-22T22:57:14.639Z,4.30
2023-02-22T22:59:41.967Z,4.38
2023-02-22T23:02:11.646Z,4.20
2023-02-22T23:04:41.154Z,4.13
2023-02-22T23:07:08.483Z,3.85
2023-02-22T23:09:37.559Z,4.15
2023-02-22T23:12:09.324Z,5.03
2023-02-22T23:14:39.709Z,3.95
2023-02-22T23:17:14.100Z,4.03
2023-02-22T23:19:44.724Z,3.65
2023-02-22T23:22:14.228Z,4.50
2023-02-22T23:24:45.488Z,4.18
2023-02-22T23:27:13.240Z,4.20
2023-02-22T23:29:46.578Z,4.50
2023-02-22T23:32:16.976Z,4.05
2023-02-22T23:34:50.021Z,4.32
2023-02-22T23:37:20.523Z,4.28
2023-02-22T23:39:51.147Z,3.97
2023-02-22T23:42:18.353Z,3.85
2023-02-22T23:44:52.144Z,4.40
2023-02-22T23:47:19.606Z,4.25
2023-02-22T23:49:49.549Z,4.10
2023-02-22T23:52:24.026Z,3.75
2023-02-22T23:54:53.851Z,4.30
2023-02-22T23:57:21.213Z,4.18
2023-02-22T23:59:51.344Z,4.18
